createdAt,value
2017-09-30T00:08:44.000Z,75.2
2017-09-30T00:25:32.000Z,75.2
2017-09-30T00:42:20.000Z,75.2
2017-09-30T00:59:07.000Z,75.2
2017-09-30T01:15:54.000Z,75.2
2017-09-30T01:32:42.000Z,75.6
2017-09-30T01:49:29.000Z,75.6
2017-09-30T02:06:17.000Z,75.6
2017-09-30T02:23:04.000Z,75.6
2017-09-30T02:39:51.000Z,75.6
2017-09-30T02:56:39.000Z,75.6
2017-09-30T03:13:26.000Z,75.6
2017-09-30T03:30:13.000Z,75.6
2017-09-30T03:47:01.000Z,75.6
2017-09-30T04:03:48.000Z,75.2
2017-09-30T04:20:35.000Z,75.2
2017-09-30T04:37:22.000Z,75.2
2017-09-30T04:54:09.000Z,75.2
2017-09-30T05:10:57.000Z,75.2
2017-09-30T05:27:44.000Z,75.2
2017-09-30T05:44:30.000Z,74.8
2017-09-30T06:01:17.000Z,75.2
2017-09-30T06:18:05.000Z,75.2
2017-09-30T06:34:52.000Z,75.2
2017-09-30T06:51:39.000Z,74.4
2017-09-30T07:08:25.000Z,74.4
2017-09-30T07:25:12.000Z,74.4
2017-09-30T07:42:00.000Z,74.4
2017-09-30T07:58:47.000Z,74.8
2017-09-30T08:15:33.000Z,74.8
2017-09-30T08:32:21.000Z,74.8
2017-09-30T08:49:08.000Z,74.8
2017-09-30T09:05:55.000Z,74.8
2017-09-30T09:22:41.000Z,75.6
2017-09-30T09:39:30.000Z,76
2017-09-30T09:56:18.000Z,76
2017-09-30T10:13:05.000Z,76.4
2017-09-30T10:29:54.000Z,76.4
2017-09-30T10:46:41.000Z,76.4
2017-09-30T11:03:29.000Z,76.4
2017-09-30T11:20:17.000Z,76.4
2017-09-30T11:37:05.000Z,76.4
2017-09-30T11:53:53.000Z,76.4
2017-09-30T12:10:40.000Z,76.4
2017-09-30T12:27:28.000Z,76.4
2017-09-30T12:44:16.000Z,76.4
2017-09-30T13:01:04.000Z,76.4
2017-09-30T13:17:52.000Z,77.2
2017-09-30T13:34:39.000Z,78
2017-09-30T13:49:47.000Z,75.6
2017-09-30T14:06:34.000Z,76
2017-09-30T14:23:20.000Z,75.6
2017-09-30T14:40:06.000Z,75.6
2017-09-30T14:56:53.000Z,74.4
2017-09-30T15:13:39.000Z,75.6
2017-09-30T15:30:26.000Z,75.2
2017-09-30T15:47:13.000Z,74.8
2017-09-30T16:04:01.000Z,74.8
2017-09-30T16:20:47.000Z,74.4
2017-09-30T16:37:33.000Z,74.8
2017-09-30T16:54:20.000Z,75.6
2017-09-30T17:11:07.000Z,76.4
2017-09-30T17:27:53.000Z,76.4
2017-09-30T17:44:40.000Z,76.4
2017-09-30T18:01:27.000Z,75.6
2017-09-30T18:18:13.000Z,75.6
2017-09-30T18:35:00.000Z,75.2
2017-09-30T18:51:46.000Z,75.2
2017-09-30T19:08:32.000Z,75.6
2017-09-30T19:25:20.000Z,75.6
2017-09-30T19:42:06.000Z,75.6
2017-09-30T19:58:52.000Z,75.6
2017-09-30T20:15:39.000Z,76.4
2017-09-30T20:32:26.000Z,76.4
2017-09-30T20:49:13.000Z,76.4
2017-09-30T21:05:59.000Z,76.8
2017-09-30T21:22:46.000Z,76.8
2017-09-30T21:39:32.000Z,76.4
2017-09-30T21:56:20.000Z,76.4
2017-09-30T22:13:06.000Z,76.4
2017-09-30T22:29:52.000Z,76.4
2017-09-30T22:46:39.000Z,76.4
2017-09-30T23:03:26.000Z,76.4
2017-09-30T23:20:12.000Z,76
2017-09-30T23:36:58.000Z,76.4
2017-09-30T23:53:44.000Z,76.4
